Hav Tind — OZ2071 — position and weather

sailwx.info

Track history (hours):
 
Tides and Currents Weather Stations Pressure Air Temp Water Temp Dewpoint Dewpoint Depression Visibility Wind Speed Wind Dir Waves Ship Positions

Hav Tind

Last reported at 2016-Apr-27 10:06 UTC. Time now 2016-Apr-30 13:12 UTC.
Position N 61°59' W 006°44'.

Length 60 m; draft 4 m.

Type: Cargo ship. MMSI: 231565000.

Date/timePositionNaut miles runAvg speedWind from/ knotsBaromVisibWave heightAir tempDewpointWater temp
2016-Apr-27 10:06N 61°59' W 006°44'1 1.0
2016-Apr-27 09:33N 61°59' W 006°45'  
2016-Apr-20 12:33N 62°08' W 006°41'0 0.0
2016-Apr-20 11:33N 62°08' W 006°41'3 3.5
2016-Apr-20 10:34N 62°05' W 006°40'6 5.9
2016-Apr-20 09:33N 61°59' W 006°45'1 0.5
2016-Apr-20 08:31N 61°59' W 006°44'15 0.4
2016-Apr-18 16:32N 62°14' W 006°48'0 0.0
2016-Apr-18 15:33N 62°14' W 006°48'0 0.0
2016-Apr-18 14:34N 62°14' W 006°48'0 0.0
2016-Apr-18 13:34N 62°14' W 006°48'0 0.0
2016-Apr-18 12:34N 62°14' W 006°48'0 0.0
2016-Apr-18 11:34N 62°14' W 006°48'  
Track history (hours):
 
Tides and Currents Weather Stations Pressure Air Temp Water Temp Dewpoint Dewpoint Depression Visibility Wind Speed Wind Dir Waves Ship Positions

Hav Tind

Last reported at 2016-Apr-27 10:06 UTC. Time now 2016-Apr-30 13:12 UTC.
Position N 61°59' W 006°44'.

Length 60 m; draft 4 m.

Type: Cargo ship. MMSI: 231565000.

Date/timePositionNaut miles runAvg speedWind from/ knotsBaromVisibWave heightAir tempDewpointWater temp
2016-Apr-27 10:06N 61°59' W 006°44'1 1.0
2016-Apr-27 09:33N 61°59' W 006°45'  
2016-Apr-20 12:33N 62°08' W 006°41'0 0.0
2016-Apr-20 11:33N 62°08' W 006°41'3 3.5
2016-Apr-20 10:34N 62°05' W 006°40'6 5.9
2016-Apr-20 09:33N 61°59' W 006°45'1 0.5
2016-Apr-20 08:31N 61°59' W 006°44'15 0.4
2016-Apr-18 16:32N 62°14' W 006°48'0 0.0
2016-Apr-18 15:33N 62°14' W 006°48'0 0.0
2016-Apr-18 14:34N 62°14' W 006°48'0 0.0
2016-Apr-18 13:34N 62°14' W 006°48'0 0.0
2016-Apr-18 12:34N 62°14' W 006°48'0 0.0
2016-Apr-18 11:34N 62°14' W 006°48'  

Dump ship's entire track history